createdAt,value
2017-07-05T00:00:09.934Z,16.72
2017-07-05T00:01:10.622Z,16.76
2017-07-05T00:02:11.319Z,16.76
2017-07-05T00:03:12.261Z,16.66
2017-07-05T00:04:12.944Z,16.75
2017-07-05T00:05:13.640Z,16.74
2017-07-05T00:06:14.331Z,16.69
2017-07-05T00:07:15.028Z,16.66
2017-07-05T00:08:15.969Z,16.64
2017-07-05T00:09:16.659Z,16.58
2017-07-05T00:10:17.352Z,16.54
2017-07-05T00:11:18.043Z,16.50
2017-07-05T00:12:18.736Z,16.43
2017-07-05T00:13:19.672Z,16.43
2017-07-05T00:14:20.366Z,16.43
2017-07-05T00:15:21.048Z,16.56
2017-07-05T00:16:21.742Z,16.43
2017-07-05T00:17:22.426Z,16.53
2017-07-05T00:18:23.366Z,16.42
2017-07-05T00:19:24.054Z,16.39
2017-07-05T00:20:24.742Z,16.36
2017-07-05T00:21:25.427Z,16.39
2017-07-05T00:22:26.114Z,16.33
2017-07-05T00:23:27.048Z,16.35
2017-07-05T00:24:27.734Z,16.36
2017-07-05T00:25:28.429Z,16.33
2017-07-05T00:26:29.121Z,16.36
2017-07-05T00:27:29.812Z,16.33
2017-07-05T00:28:30.748Z,16.33
2017-07-05T00:29:31.437Z,16.31
2017-07-05T00:30:32.123Z,16.32
2017-07-05T00:31:32.811Z,16.17
2017-07-05T00:32:33.497Z,16.16
2017-07-05T00:33:34.434Z,16.24
2017-07-05T00:34:35.122Z,16.23
2017-07-05T00:35:35.810Z,16.21
2017-07-05T00:36:36.503Z,16.21
2017-07-05T00:37:37.185Z,16.24
2017-07-05T00:38:38.123Z,16.20
2017-07-05T00:39:38.812Z,16.29
2017-07-05T00:40:39.498Z,16.21
2017-07-05T00:41:40.189Z,16.28
2017-07-05T00:42:40.879Z,16.28
2017-07-05T00:43:41.822Z,16.28
2017-07-05T00:44:42.511Z,16.23
2017-07-05T00:45:43.198Z,16.28
2017-07-05T00:46:43.887Z,16.29
2017-07-05T00:47:44.573Z,16.12
2017-07-05T00:48:45.513Z,16.12
2017-07-05T00:49:46.204Z,16.21
2017-07-05T00:50:46.892Z,16.10
2017-07-05T00:51:47.579Z,16.10
2017-07-05T00:52:48.270Z,16.04
2017-07-05T00:53:49.212Z,16.02
2017-07-05T00:54:49.903Z,16.04
2017-07-05T00:55:50.595Z,16.02
2017-07-05T00:56:51.286Z,16.02
2017-07-05T00:57:51.977Z,16.04
2017-07-05T00:58:52.916Z,16.02
2017-07-05T00:59:53.606Z,16.02
2017-07-05T01:00:54.294Z,16.08
2017-07-05T01:01:54.981Z,16.01
2017-07-05T01:02:55.668Z,15.90
2017-07-05T01:03:56.608Z,15.94
2017-07-05T01:04:57.294Z,15.92
2017-07-05T01:05:57.984Z,15.95
2017-07-05T01:06:58.675Z,15.91
2017-07-05T01:07:59.361Z,15.84
2017-07-05T01:09:00.300Z,15.90
2017-07-05T01:10:00.990Z,15.86
2017-07-05T01:11:01.677Z,15.72
2017-07-05T01:12:02.363Z,15.80
2017-07-05T01:13:03.049Z,15.76
2017-07-05T01:14:03.988Z,15.76
2017-07-05T01:15:04.674Z,15.75
2017-07-05T01:16:05.360Z,15.67
2017-07-05T01:17:06.046Z,15.77
2017-07-05T01:18:06.740Z,15.67
2017-07-05T01:19:07.678Z,15.72
2017-07-05T01:20:08.365Z,15.79
2017-07-05T01:21:09.050Z,15.73
2017-07-05T01:22:09.733Z,15.80
2017-07-05T01:23:10.423Z,15.73
2017-07-05T01:24:11.362Z,15.67
2017-07-05T01:25:12.047Z,15.75
2017-07-05T01:26:12.734Z,15.70
2017-07-05T01:27:13.418Z,15.72
2017-07-05T01:28:14.111Z,15.67
2017-07-05T01:29:15.042Z,15.68
2017-07-05T01:30:15.729Z,15.68
2017-07-05T01:31:16.421Z,15.68
2017-07-05T01:32:17.108Z,15.68
2017-07-05T01:33:17.793Z,15.62
2017-07-05T01:34:18.736Z,15.62
2017-07-05T01:35:19.418Z,15.59
2017-07-05T01:36:20.106Z,15.61
2017-07-05T01:37:20.799Z,15.57
2017-07-05T01:38:21.483Z,15.65
2017-07-05T01:39:22.419Z,15.55
2017-07-05T01:40:23.106Z,15.65
2017-07-05T01:41:23.793Z,15.62
2017-07-05T01:42:24.484Z,15.61
2017-07-05T01:43:25.171Z,15.49
2017-07-05T01:44:26.109Z,15.54
2017-07-05T01:45:26.796Z,15.51
2017-07-05T01:46:27.487Z,15.52
2017-07-05T01:47:28.178Z,15.47
2017-07-05T01:48:28.871Z,15.52
2017-07-05T01:49:29.813Z,15.44
2017-07-05T01:50:30.498Z,15.49
2017-07-05T01:51:31.189Z,15.46
2017-07-05T01:52:31.873Z,15.42
2017-07-05T01:53:32.561Z,15.43
2017-07-05T01:54:33.502Z,15.46
2017-07-05T01:55:34.190Z,15.37
2017-07-05T01:56:34.875Z,15.31
2017-07-05T01:57:35.563Z,15.28
2017-07-05T01:58:36.248Z,15.31
2017-07-05T01:59:37.191Z,15.31
2017-07-05T02:00:37.879Z,15.36
2017-07-05T02:01:38.565Z,15.37
2017-07-05T02:02:39.251Z,15.42
2017-07-05T02:03:39.941Z,15.39
2017-07-05T02:04:40.888Z,15.39
2017-07-05T02:05:41.576Z,15.39
2017-07-05T02:06:42.265Z,15.40
2017-07-05T02:07:42.952Z,15.39
2017-07-05T02:08:43.638Z,15.29
2017-07-05T02:09:44.576Z,15.31
2017-07-05T02:10:45.265Z,15.35
2017-07-05T02:11:45.954Z,15.39
2017-07-05T02:12:46.646Z,15.37
2017-07-05T02:13:47.339Z,15.37
2017-07-05T02:14:48.280Z,15.39
2017-07-05T02:15:48.968Z,15.43
2017-07-05T02:16:49.655Z,15.27
2017-07-05T02:17:50.348Z,15.33
2017-07-05T02:18:51.038Z,15.31
2017-07-05T02:19:51.986Z,15.40
2017-07-05T02:20:52.664Z,15.33
2017-07-05T02:21:53.357Z,15.35
2017-07-05T02:22:54.044Z,15.29
2017-07-05T02:23:54.729Z,15.19
2017-07-05T02:24:55.669Z,15.24
2017-07-05T02:25:56.354Z,15.21
2017-07-05T02:26:57.040Z,15.21
2017-07-05T02:27:57.727Z,15.15
2017-07-05T02:28:58.417Z,15.19
2017-07-05T02:29:59.350Z,15.10
2017-07-05T02:31:00.039Z,15.03
2017-07-05T02:32:00.727Z,15.02
2017-07-05T02:33:01.412Z,15.03
2017-07-05T02:34:02.099Z,15.11
2017-07-05T02:35:03.039Z,15.11
2017-07-05T02:36:03.724Z,15.02
2017-07-05T02:37:04.407Z,15.06
2017-07-05T02:38:05.091Z,15.02
2017-07-05T02:39:05.776Z,15.06
2017-07-05T02:40:06.716Z,15.07
2017-07-05T02:41:07.403Z,15.00
2017-07-05T02:42:08.088Z,14.97
2017-07-05T02:43:08.774Z,15.02
2017-07-05T02:44:09.463Z,15.04
2017-07-05T02:45:10.154Z,15.03
2017-07-05T02:46:10.840Z,15.04
2017-07-05T02:47:11.531Z,14.89
2017-07-05T02:48:12.223Z,14.94
2017-07-05T02:49:12.909Z,14.94
2017-07-05T02:50:13.848Z,14.88
2017-07-05T02:51:14.545Z,14.82
2017-07-05T02:52:15.245Z,14.85
2017-07-05T02:53:15.932Z,14.81
2017-07-05T02:54:16.620Z,14.81
2017-07-05T02:55:17.559Z,14.77
2017-07-05T02:56:18.249Z,14.65
2017-07-05T02:57:18.934Z,14.68
2017-07-05T02:58:19.630Z,14.72
2017-07-05T02:59:20.320Z,14.69
2017-07-05T03:00:21.254Z,14.78
2017-07-05T03:01:21.939Z,14.79
2017-07-05T03:02:22.629Z,14.78
2017-07-05T03:03:23.319Z,14.82
2017-07-05T03:04:24.006Z,14.68
2017-07-05T03:05:24.942Z,14.79
2017-07-05T03:06:25.631Z,14.73
2017-07-05T03:07:26.316Z,14.81
2017-07-05T03:08:27.004Z,14.63
2017-07-05T03:09:27.691Z,14.69
2017-07-05T03:10:28.629Z,14.65
2017-07-05T03:11:29.318Z,14.69
2017-07-05T03:12:30.006Z,14.65
2017-07-05T03:13:30.694Z,14.70
2017-07-05T03:14:31.386Z,14.73
2017-07-05T03:15:32.322Z,14.79
2017-07-05T03:16:33.016Z,14.81
2017-07-05T03:17:33.707Z,14.77
2017-07-05T03:18:34.398Z,14.78
2017-07-05T03:19:35.085Z,14.77
2017-07-05T03:20:36.021Z,14.77
2017-07-05T03:21:36.714Z,14.81
2017-07-05T03:22:37.405Z,14.78
2017-07-05T03:23:38.094Z,14.68
2017-07-05T03:24:38.783Z,14.69
2017-07-05T03:25:39.721Z,14.65
2017-07-05T03:26:40.408Z,14.69
2017-07-05T03:27:41.094Z,14.70
2017-07-05T03:28:41.779Z,14.68
2017-07-05T03:29:42.470Z,14.68
2017-07-05T03:30:43.411Z,14.73
2017-07-05T03:31:44.108Z,14.72
2017-07-05T03:32:44.802Z,14.69
2017-07-05T03:33:45.482Z,14.68
2017-07-05T03:34:46.171Z,14.63
2017-07-05T03:35:47.113Z,14.72
2017-07-05T03:36:47.803Z,14.77
2017-07-05T03:37:48.490Z,14.79
2017-07-05T03:38:49.188Z,14.85
2017-07-05T03:39:49.877Z,14.77
2017-07-05T03:40:50.820Z,14.85
2017-07-05T03:41:51.510Z,14.81
2017-07-05T03:42:52.198Z,14.81
2017-07-05T03:43:52.889Z,14.68
2017-07-05T03:44:53.579Z,14.73
2017-07-05T03:45:54.526Z,14.68
2017-07-05T03:46:55.212Z,14.66
2017-07-05T03:47:55.903Z,14.69
2017-07-05T03:48:56.592Z,14.73
2017-07-05T03:49:57.285Z,14.72
2017-07-05T03:50:58.224Z,14.68
2017-07-05T03:51:58.917Z,14.79
2017-07-05T03:52:59.602Z,14.68
2017-07-05T03:54:00.285Z,14.77
2017-07-05T03:55:00.977Z,14.73
2017-07-05T03:56:01.918Z,14.77
2017-07-05T03:57:02.610Z,14.79
2017-07-05T03:58:03.302Z,14.78
2017-07-05T03:59:03.995Z,14.82
2017-07-05T04:00:04.689Z,14.81
2017-07-05T04:01:05.630Z,14.82
2017-07-05T04:02:06.320Z,14.81
2017-07-05T04:03:07.007Z,14.82
2017-07-05T04:04:07.694Z,14.92
2017-07-05T04:05:08.385Z,14.88
2017-07-05T04:06:09.322Z,14.91
2017-07-05T04:07:10.009Z,15.03
2017-07-05T04:08:10.701Z,15.04
2017-07-05T04:09:11.392Z,15.10
2017-07-05T04:10:12.085Z,15.07
2017-07-05T04:11:12.773Z,15.07
2017-07-05T04:12:13.472Z,15.06
2017-07-05T04:13:14.165Z,15.06
2017-07-05T04:14:14.864Z,15.04
2017-07-05T04:15:15.556Z,15.14
2017-07-05T04:16:16.252Z,15.09
2017-07-05T04:17:16.938Z,15.15
2017-07-05T04:18:17.633Z,15.25
2017-07-05T04:19:18.325Z,15.22
2017-07-05T04:20:19.014Z,15.24
2017-07-05T04:21:19.954Z,15.21
2017-07-05T04:22:20.640Z,15.19
2017-07-05T04:23:21.329Z,15.27
2017-07-05T04:24:22.020Z,15.24
2017-07-05T04:25:22.712Z,15.31
2017-07-05T04:26:23.655Z,15.22
2017-07-05T04:27:24.347Z,15.28
2017-07-05T04:28:25.040Z,15.25
2017-07-05T04:29:25.729Z,15.24
2017-07-05T04:30:26.421Z,15.31
2017-07-05T04:31:27.361Z,15.35
2017-07-05T04:32:28.056Z,15.25
2017-07-05T04:33:28.746Z,15.35
2017-07-05T04:34:29.450Z,15.29
2017-07-05T04:35:30.142Z,15.31
2017-07-05T04:36:31.085Z,15.21
2017-07-05T04:37:31.775Z,15.24
2017-07-05T04:38:32.466Z,15.33
2017-07-05T04:39:33.159Z,15.31
2017-07-05T04:40:33.851Z,15.28
2017-07-05T04:41:34.795Z,15.36
2017-07-05T04:42:35.486Z,15.33
2017-07-05T04:43:36.176Z,15.35
2017-07-05T04:44:36.870Z,15.36
2017-07-05T04:45:37.563Z,15.33
2017-07-05T04:46:38.506Z,15.35
2017-07-05T04:47:39.203Z,15.37
2017-07-05T04:48:39.891Z,15.31
2017-07-05T04:49:40.581Z,15.31
2017-07-05T04:50:41.268Z,15.35
2017-07-05T04:51:42.211Z,15.40
2017-07-05T04:52:42.907Z,15.39
2017-07-05T04:53:43.599Z,15.47
2017-07-05T04:54:44.287Z,15.52
2017-07-05T04:55:44.974Z,15.47
2017-07-05T04:56:45.913Z,15.57
2017-07-05T04:57:46.603Z,15.72
2017-07-05T04:58:47.293Z,15.97
2017-07-05T04:59:47.989Z,16.12
2017-07-05T05:00:48.676Z,16.28
2017-07-05T05:01:49.615Z,16.35
2017-07-05T05:02:50.305Z,16.42
2017-07-05T05:03:50.994Z,16.56
2017-07-05T05:04:51.685Z,16.65
2017-07-05T05:05:52.377Z,16.66
2017-07-05T05:06:53.321Z,16.84
2017-07-05T05:07:54.013Z,16.86
2017-07-05T05:08:54.709Z,16.96
2017-07-05T05:09:55.396Z,16.96
2017-07-05T05:10:56.086Z,17.04
2017-07-05T05:11:57.026Z,17.09
2017-07-05T05:12:57.716Z,17.06
2017-07-05T05:13:58.406Z,17.12
2017-07-05T05:14:59.103Z,17.09
2017-07-05T05:15:59.796Z,17.12
2017-07-05T05:17:00.738Z,17.22
2017-07-05T05:18:01.430Z,17.34
2017-07-05T05:19:02.121Z,17.34
2017-07-05T05:20:02.815Z,17.51
2017-07-05T05:21:03.504Z,17.44
2017-07-05T05:22:04.453Z,17.31
2017-07-05T05:23:05.144Z,17.19
2017-07-05T05:24:05.836Z,17.11
2017-07-05T05:25:06.525Z,17.08
2017-07-05T05:26:07.213Z,17.02
2017-07-05T05:27:08.158Z,17.04
2017-07-05T05:28:08.845Z,16.93
2017-07-05T05:29:09.535Z,16.86
2017-07-05T05:30:10.227Z,16.96
2017-07-05T05:31:10.917Z,16.89
2017-07-05T05:32:11.875Z,16.90
2017-07-05T05:33:12.567Z,16.87
2017-07-05T05:34:13.260Z,16.84
2017-07-05T05:35:13.951Z,16.76
2017-07-05T05:36:14.637Z,16.86
2017-07-05T05:37:15.584Z,16.84
2017-07-05T05:38:16.279Z,16.89
2017-07-05T05:39:16.970Z,16.84
2017-07-05T05:40:17.665Z,16.89
2017-07-05T05:41:18.351Z,16.83
2017-07-05T05:42:19.039Z,16.87
2017-07-05T05:43:19.733Z,16.84
2017-07-05T05:44:20.423Z,16.76
2017-07-05T05:45:21.119Z,16.83
2017-07-05T05:46:21.810Z,16.71
2017-07-05T05:47:22.754Z,16.75
2017-07-05T05:48:23.444Z,16.72
2017-07-05T05:49:24.138Z,16.78
2017-07-05T05:50:24.829Z,16.76
2017-07-05T05:51:25.519Z,16.84
2017-07-05T05:52:26.463Z,16.86
2017-07-05T05:53:27.166Z,16.89
2017-07-05T05:54:27.863Z,16.90
2017-07-05T05:55:28.554Z,16.87
2017-07-05T05:56:29.244Z,16.94
2017-07-05T05:57:30.194Z,16.94
2017-07-05T05:58:30.887Z,17.01
2017-07-05T05:59:31.579Z,16.91
2017-07-05T06:00:32.273Z,16.97
2017-07-05T06:01:32.970Z,16.96
2017-07-05T06:02:33.916Z,16.96
2017-07-05T06:03:34.607Z,17.04
2017-07-05T06:04:35.298Z,17.06
2017-07-05T06:05:35.987Z,17.02
2017-07-05T06:06:36.678Z,17.09
2017-07-05T06:07:37.620Z,17.05
2017-07-05T06:08:38.313Z,17.12
2017-07-05T06:09:39.006Z,17.08
2017-07-05T06:10:39.701Z,17.09
2017-07-05T06:11:40.392Z,17.09
2017-07-05T06:12:41.333Z,17.20
2017-07-05T06:13:42.022Z,17.20
2017-07-05T06:14:42.713Z,17.23
2017-07-05T06:15:43.403Z,17.22
2017-07-05T06:16:44.098Z,17.27
2017-07-05T06:17:45.039Z,17.27
2017-07-05T06:18:45.732Z,17.31
2017-07-05T06:19:46.422Z,17.36
2017-07-05T06:20:47.114Z,17.27
2017-07-05T06:21:47.811Z,17.36
2017-07-05T06:22:48.759Z,17.44
2017-07-05T06:23:49.441Z,17.41
2017-07-05T06:24:50.131Z,17.56
2017-07-05T06:25:50.826Z,17.44
2017-07-05T06:26:51.520Z,17.49
2017-07-05T06:27:52.212Z,17.48
2017-07-05T06:28:52.904Z,17.57
2017-07-05T06:29:53.593Z,17.65
2017-07-05T06:30:54.283Z,17.71
2017-07-05T06:31:54.988Z,17.72
2017-07-05T06:32:55.929Z,17.68
2017-07-05T06:33:56.620Z,17.78
2017-07-05T06:34:57.321Z,17.87
2017-07-05T06:35:58.005Z,17.86
2017-07-05T06:36:58.697Z,17.89
2017-07-05T06:37:59.641Z,17.92
2017-07-05T06:39:00.330Z,17.95
2017-07-05T06:40:01.023Z,17.98
2017-07-05T06:41:01.713Z,18.04
2017-07-05T06:42:02.413Z,17.97
2017-07-05T06:43:03.356Z,18.13
2017-07-05T06:44:04.049Z,17.98
2017-07-05T06:45:04.739Z,18.00
2017-07-05T06:46:05.432Z,18.15
2017-07-05T06:47:06.125Z,18.05
2017-07-05T06:48:07.064Z,18.20
2017-07-05T06:49:07.754Z,18.20
2017-07-05T06:50:08.449Z,18.13
2017-07-05T06:51:09.139Z,18.25
2017-07-05T06:52:09.838Z,18.22
2017-07-05T06:53:10.779Z,18.22
2017-07-05T06:54:11.469Z,18.26
2017-07-05T06:55:12.164Z,18.33
2017-07-05T06:56:12.862Z,18.33
2017-07-05T06:57:13.552Z,18.33
2017-07-05T06:58:14.495Z,18.34
2017-07-05T06:59:15.185Z,18.43
2017-07-05T07:00:15.887Z,18.41
2017-07-05T07:01:16.582Z,18.41
2017-07-05T07:02:17.275Z,18.43
2017-07-05T07:03:18.224Z,18.55
2017-07-05T07:04:18.923Z,18.55
2017-07-05T07:05:19.618Z,18.58
2017-07-05T07:06:20.308Z,18.59
2017-07-05T07:07:21.002Z,18.60
2017-07-05T07:08:21.947Z,18.60
2017-07-05T07:09:22.638Z,18.62
2017-07-05T07:10:23.338Z,18.68
2017-07-05T07:11:24.028Z,18.77
2017-07-05T07:12:24.730Z,18.70
2017-07-05T07:13:25.423Z,18.70
2017-07-05T07:14:26.114Z,18.70
2017-07-05T07:15:26.810Z,18.78
2017-07-05T07:16:27.503Z,18.73
2017-07-05T07:17:28.202Z,18.78
2017-07-05T07:18:29.147Z,18.88
2017-07-05T07:19:29.836Z,18.86
2017-07-05T07:20:30.529Z,18.81
2017-07-05T07:21:31.227Z,18.83
2017-07-05T07:22:31.929Z,18.93
2017-07-05T07:23:32.873Z,18.96
2017-07-05T07:24:33.580Z,18.99
2017-07-05T07:25:34.273Z,18.99
2017-07-05T07:26:34.966Z,19.00
2017-07-05T07:27:35.659Z,19.07
2017-07-05T07:28:36.605Z,19.11
2017-07-05T07:29:37.304Z,19.15
2017-07-05T07:30:37.995Z,19.24
2017-07-05T07:31:38.690Z,19.27
2017-07-05T07:32:39.389Z,19.37
2017-07-05T07:33:40.332Z,19.29
2017-07-05T07:34:41.025Z,19.40
2017-07-05T07:35:41.727Z,19.39
2017-07-05T07:36:42.428Z,19.48
2017-07-05T07:37:43.120Z,19.56
2017-07-05T07:38:44.061Z,19.54
2017-07-05T07:39:44.757Z,19.58
2017-07-05T07:40:45.455Z,19.69
2017-07-05T07:41:46.151Z,19.71
2017-07-05T07:42:46.840Z,19.73
2017-07-05T07:43:47.788Z,19.77
2017-07-05T07:44:48.486Z,19.71
2017-07-05T07:45:49.185Z,19.79
2017-07-05T07:46:49.891Z,19.85
2017-07-05T07:47:50.588Z,19.85
2017-07-05T07:48:51.537Z,19.99
2017-07-05T07:49:52.225Z,19.96
2017-07-05T07:50:52.919Z,19.92
2017-07-05T07:51:53.609Z,20.04
2017-07-05T07:52:54.300Z,20.03
2017-07-05T07:53:55.247Z,20.03
2017-07-05T07:54:55.945Z,20.13
2017-07-05T07:55:56.643Z,20.14
2017-07-05T07:56:57.338Z,20.21
2017-07-05T07:57:58.035Z,20.24
2017-07-05T07:58:58.726Z,20.21
2017-07-05T07:59:59.423Z,20.32
2017-07-05T08:01:00.119Z,20.37
2017-07-05T08:02:00.815Z,20.37
2017-07-05T08:03:01.515Z,20.26
2017-07-05T08:04:02.464Z,20.36
2017-07-05T08:05:03.164Z,20.34
2017-07-05T08:06:03.858Z,20.58
2017-07-05T08:07:04.554Z,20.48
2017-07-05T08:08:05.254Z,20.48
2017-07-05T08:09:06.200Z,20.50
2017-07-05T08:10:06.897Z,20.60
2017-07-05T08:11:07.596Z,20.62
2017-07-05T08:12:08.291Z,20.60
2017-07-05T08:13:08.982Z,20.69
2017-07-05T08:14:09.926Z,20.75
2017-07-05T08:15:10.620Z,20.78
2017-07-05T08:16:11.313Z,20.75
2017-07-05T08:17:12.009Z,20.85
2017-07-05T08:18:12.706Z,20.82
2017-07-05T08:19:13.651Z,20.90
2017-07-05T08:20:14.349Z,20.96
2017-07-05T08:21:15.040Z,21.02
2017-07-05T08:22:15.732Z,21.06
2017-07-05T08:23:16.429Z,21.14
2017-07-05T08:24:17.374Z,21.12
2017-07-05T08:25:18.074Z,21.20
2017-07-05T08:26:18.769Z,21.24
2017-07-05T08:27:19.466Z,21.36
2017-07-05T08:28:20.164Z,21.36
2017-07-05T08:29:21.106Z,21.35
2017-07-05T08:30:21.805Z,21.40
2017-07-05T08:31:22.505Z,21.40
2017-07-05T08:32:23.209Z,21.60
2017-07-05T08:33:23.904Z,21.50
2017-07-05T08:34:24.852Z,21.52
2017-07-05T08:35:25.546Z,21.55
2017-07-05T08:36:26.244Z,21.57
2017-07-05T08:37:26.937Z,21.61
2017-07-05T08:38:27.631Z,21.69
2017-07-05T08:39:28.580Z,21.69
2017-07-05T08:40:29.277Z,21.75
2017-07-05T08:41:29.977Z,21.75
2017-07-05T08:42:30.668Z,21.75
2017-07-05T08:43:31.361Z,21.77
2017-07-05T08:44:32.060Z,21.92
2017-07-05T08:45:32.754Z,21.98
2017-07-05T08:46:33.450Z,22.10
2017-07-05T08:47:34.151Z,22.14
2017-07-05T08:48:34.846Z,22.10
2017-07-05T08:49:35.798Z,22.14
2017-07-05T08:50:36.491Z,22.26
2017-07-05T08:51:37.185Z,22.25
2017-07-05T08:52:37.880Z,22.29
2017-07-05T08:53:38.576Z,22.25
2017-07-05T08:54:39.534Z,22.32
2017-07-05T08:55:40.231Z,22.39
2017-07-05T08:56:40.934Z,22.44
2017-07-05T08:57:41.630Z,22.48
2017-07-05T08:58:42.325Z,22.55
2017-07-05T08:59:43.274Z,22.43
2017-07-05T09:00:43.969Z,22.57
2017-07-05T09:01:44.663Z,22.57
2017-07-05T09:02:45.366Z,22.62
2017-07-05T09:03:46.061Z,22.68
2017-07-05T09:04:46.759Z,22.66
2017-07-05T09:05:47.467Z,22.73
2017-07-05T09:06:48.164Z,22.80
2017-07-05T09:07:48.871Z,22.94
2017-07-05T09:08:49.569Z,23.00
2017-07-05T09:09:50.508Z,22.99
2017-07-05T09:10:51.191Z,22.94
2017-07-05T09:11:51.902Z,22.99
2017-07-05T09:12:52.597Z,22.98
2017-07-05T09:13:53.294Z,23.06
2017-07-05T09:14:54.241Z,23.05
2017-07-05T09:15:54.938Z,23.06
2017-07-05T09:16:55.631Z,23.00
2017-07-05T09:17:56.326Z,23.10
2017-07-05T09:18:57.022Z,23.10
2017-07-05T09:19:57.969Z,23.32
2017-07-05T09:20:58.665Z,23.28
2017-07-05T09:21:59.365Z,23.43
2017-07-05T09:23:00.064Z,23.39
2017-07-05T09:24:00.767Z,23.43
2017-07-05T09:25:01.725Z,23.48
2017-07-05T09:26:02.426Z,23.41
2017-07-05T09:27:03.121Z,23.51
2017-07-05T09:28:03.818Z,23.46
2017-07-05T09:29:04.512Z,23.56
2017-07-05T09:30:05.223Z,23.66
2017-07-05T09:31:05.919Z,23.66
2017-07-05T09:32:06.615Z,23.71
2017-07-05T09:33:07.230Z,23.84
2017-07-05T09:34:08.012Z,23.83
2017-07-05T09:35:08.962Z,23.87
2017-07-05T09:36:09.659Z,23.88
2017-07-05T09:37:10.356Z,23.96
2017-07-05T09:38:11.050Z,23.96
2017-07-05T09:39:11.753Z,24.16
2017-07-05T09:40:12.702Z,24.23
2017-07-05T09:41:13.396Z,24.26
2017-07-05T09:42:14.094Z,24.29
2017-07-05T09:43:14.794Z,24.32
2017-07-05T09:44:15.489Z,24.33
2017-07-05T09:45:16.435Z,24.32
2017-07-05T09:46:17.132Z,24.47
2017-07-05T09:47:17.829Z,24.53
2017-07-05T09:48:18.526Z,24.48
2017-07-05T09:49:19.230Z,24.55
2017-07-05T09:50:20.174Z,24.51
2017-07-05T09:51:20.872Z,24.66
2017-07-05T09:52:21.567Z,24.65
2017-07-05T09:53:22.271Z,24.69
2017-07-05T09:54:22.967Z,24.69
2017-07-05T09:55:23.914Z,24.70
2017-07-05T09:56:24.628Z,24.76
2017-07-05T09:57:25.326Z,24.84
2017-07-05T09:58:26.025Z,24.85
2017-07-05T09:59:26.783Z,24.92
2017-07-05T10:00:27.428Z,24.96
2017-07-05T10:01:28.135Z,25.11
2017-07-05T10:02:28.754Z,25.13
2017-07-05T10:03:29.510Z,25.23
2017-07-05T10:04:30.211Z,25.35
2017-07-05T10:05:31.158Z,25.53
2017-07-05T10:06:31.853Z,25.51
2017-07-05T10:07:32.553Z,25.66
2017-07-05T10:08:33.254Z,25.59
2017-07-05T10:09:33.961Z,25.73
2017-07-05T10:10:34.914Z,25.70
2017-07-05T10:11:35.608Z,25.81
2017-07-05T10:12:36.311Z,25.77
2017-07-05T10:13:37.007Z,25.83
2017-07-05T10:14:37.705Z,25.90
2017-07-05T10:15:38.403Z,25.96
2017-07-05T10:16:39.099Z,25.98
2017-07-05T10:17:39.794Z,25.96
2017-07-05T10:18:40.494Z,26.02
2017-07-05T10:19:41.193Z,26.02
2017-07-05T10:20:42.144Z,26.19
2017-07-05T10:21:42.848Z,26.07
2017-07-05T10:22:43.590Z,26.16
2017-07-05T10:23:44.242Z,26.16
2017-07-05T10:24:44.943Z,26.18
2017-07-05T10:25:45.900Z,26.29
2017-07-05T10:26:46.598Z,26.43
2017-07-05T10:27:47.302Z,26.52
2017-07-05T10:28:48.001Z,26.71
2017-07-05T10:29:48.701Z,26.73
2017-07-05T10:30:49.659Z,26.83
2017-07-05T10:31:50.351Z,26.88
2017-07-05T10:32:51.051Z,26.95
2017-07-05T10:33:51.752Z,27.07
2017-07-05T10:34:52.459Z,26.96
2017-07-05T10:35:53.405Z,27.00
2017-07-05T10:36:54.100Z,27.05
2017-07-05T10:37:54.804Z,27.25
2017-07-05T10:38:55.503Z,27.36
2017-07-05T10:39:56.202Z,27.35
2017-07-05T10:40:57.153Z,27.45
2017-07-05T10:41:57.848Z,27.33
2017-07-05T10:42:58.558Z,27.39
2017-07-05T10:43:59.258Z,27.37
2017-07-05T10:44:59.959Z,27.39
2017-07-05T10:46:00.905Z,27.37
2017-07-05T10:47:01.607Z,27.49
2017-07-05T10:48:02.306Z,27.49
2017-07-05T10:49:03.001Z,27.80
2017-07-05T10:50:03.700Z,27.87
2017-07-05T10:51:04.655Z,27.74
2017-07-05T10:52:05.355Z,27.83
2017-07-05T10:53:06.048Z,27.87
2017-07-05T10:54:06.743Z,27.90
2017-07-05T10:55:07.441Z,27.90
2017-07-05T10:56:08.390Z,27.85
2017-07-05T10:57:09.089Z,28.02
2017-07-05T10:58:09.788Z,27.96
2017-07-05T10:59:10.486Z,27.92
2017-07-05T11:00:11.191Z,27.95
2017-07-05T11:01:11.891Z,28.00
2017-07-05T11:02:12.586Z,28.01
2017-07-05T11:03:13.288Z,27.89
2017-07-05T11:04:13.981Z,27.95
2017-07-05T11:05:14.689Z,28.04
2017-07-05T11:06:15.647Z,28.08
2017-07-05T11:07:16.347Z,28.14
2017-07-05T11:08:17.046Z,28.15
2017-07-05T11:09:17.750Z,28.37
2017-07-05T11:10:18.457Z,28.38
2017-07-05T11:11:19.409Z,28.32
2017-07-05T11:12:20.110Z,28.44
2017-07-05T11:13:20.812Z,28.60
2017-07-05T11:14:21.509Z,28.49
2017-07-05T11:15:22.214Z,28.56
2017-07-05T11:16:23.168Z,28.57
2017-07-05T11:17:23.874Z,28.30
2017-07-05T11:18:24.572Z,28.42
2017-07-05T11:19:25.265Z,28.48
2017-07-05T11:20:25.973Z,28.62
2017-07-05T11:21:26.926Z,28.62
2017-07-05T11:22:27.630Z,28.64
2017-07-05T11:23:28.325Z,28.64
2017-07-05T11:24:29.029Z,28.76
2017-07-05T11:25:29.726Z,28.45
2017-07-05T11:26:30.681Z,28.56
2017-07-05T11:27:31.380Z,28.75
2017-07-05T11:28:32.086Z,28.57
2017-07-05T11:29:32.782Z,28.84
2017-07-05T11:30:33.484Z,29.02
2017-07-05T11:31:34.439Z,29.02
2017-07-05T11:32:35.138Z,29.04
2017-07-05T11:33:35.840Z,29.08
2017-07-05T11:34:36.541Z,29.13
2017-07-05T11:35:37.244Z,29.07
2017-07-05T11:36:38.200Z,28.88
2017-07-05T11:37:38.899Z,29.01
2017-07-05T11:38:39.601Z,29.05
2017-07-05T11:39:40.302Z,29.24
2017-07-05T11:40:41.004Z,29.22
2017-07-05T11:41:41.965Z,29.23
2017-07-05T11:42:42.670Z,29.29
2017-07-05T11:43:43.368Z,29.42
2017-07-05T11:44:44.070Z,29.36
2017-07-05T11:45:44.772Z,29.32
2017-07-05T11:46:45.625Z,29.27
2017-07-05T11:47:46.327Z,29.35
2017-07-05T11:48:47.027Z,29.44
2017-07-05T11:49:47.724Z,29.29
2017-07-05T11:50:48.425Z,29.32
2017-07-05T11:51:49.381Z,29.38
2017-07-05T11:52:50.094Z,29.22
2017-07-05T11:53:50.800Z,29.07
2017-07-05T11:54:51.500Z,28.98
2017-07-05T11:55:52.200Z,28.94
2017-07-05T11:56:53.154Z,28.98
2017-07-05T11:57:53.867Z,28.98
2017-07-05T11:58:54.567Z,29.14
2017-07-05T11:59:55.272Z,29.35
2017-07-05T12:00:55.977Z,29.45
2017-07-05T12:01:56.925Z,29.57
2017-07-05T12:02:57.625Z,29.76
2017-07-05T12:03:58.331Z,29.93
2017-07-05T12:04:59.031Z,30.02
2017-07-05T12:05:59.731Z,30.13
2017-07-05T12:07:00.683Z,30.27
2017-07-05T12:08:01.383Z,30.31
2017-07-05T12:09:02.093Z,30.30
2017-07-05T12:10:02.800Z,30.57
2017-07-05T12:11:03.499Z,30.59
2017-07-05T12:12:04.460Z,30.69
2017-07-05T12:13:05.163Z,30.68
2017-07-05T12:14:05.863Z,30.68
2017-07-05T12:15:06.565Z,30.84
2017-07-05T12:16:07.261Z,30.84
2017-07-05T12:17:07.962Z,30.73
2017-07-05T12:18:08.673Z,30.63
2017-07-05T12:19:09.373Z,30.54
2017-07-05T12:20:10.076Z,30.30
2017-07-05T12:21:10.782Z,30.44
2017-07-05T12:22:11.743Z,30.39
2017-07-05T12:23:12.450Z,30.28
2017-07-05T12:24:13.149Z,30.31
2017-07-05T12:25:13.854Z,30.15
2017-07-05T12:26:14.558Z,30.08
2017-07-05T12:27:15.258Z,29.95
2017-07-05T12:28:15.958Z,29.86
2017-07-05T12:29:16.657Z,29.86
2017-07-05T12:30:17.353Z,29.81
2017-07-05T12:31:18.055Z,29.81
2017-07-05T12:32:19.008Z,29.78
2017-07-05T12:33:19.706Z,29.78
2017-07-05T12:34:20.411Z,29.79
2017-07-05T12:35:21.114Z,29.86
2017-07-05T12:36:21.816Z,30.06
2017-07-05T12:37:22.768Z,30.25
2017-07-05T12:38:23.470Z,30.57
2017-07-05T12:39:24.172Z,30.57
2017-07-05T12:40:24.873Z,30.73
2017-07-05T12:41:25.576Z,30.63
2017-07-05T12:42:26.535Z,30.81
2017-07-05T12:43:27.238Z,30.88
2017-07-05T12:44:27.942Z,30.69
2017-07-05T12:45:28.647Z,30.68
2017-07-05T12:46:29.344Z,30.85
2017-07-05T12:47:30.301Z,30.96
2017-07-05T12:48:31.008Z,30.96
2017-07-05T12:49:31.715Z,31.10
2017-07-05T12:50:32.432Z,31.22
2017-07-05T12:51:33.134Z,31.28
2017-07-05T12:52:34.238Z,31.21
2017-07-05T12:53:34.941Z,31.33
2017-07-05T12:54:35.643Z,31.24
2017-07-05T12:55:36.345Z,31.14
2017-07-05T12:56:37.057Z,31.15
2017-07-05T12:57:38.009Z,31.02
2017-07-05T12:58:38.711Z,30.94
2017-07-05T12:59:39.410Z,31.02
2017-07-05T13:00:40.117Z,31.20
2017-07-05T13:01:40.817Z,31.28